createdAt,value
2023-02-23T00:03:09.284Z,0.54
2023-02-23T00:06:40.811Z,0.52
2023-02-23T00:10:12.844Z,0.49
2023-02-23T00:13:41.219Z,0.48
2023-02-23T00:17:15.283Z,0.46
2023-02-23T00:20:49.063Z,0.46
2023-02-23T00:24:19.474Z,0.45
2023-02-23T00:27:49.769Z,0.44
2023-02-23T00:31:17.545Z,0.43
2023-02-23T00:34:45.222Z,0.41
2023-02-23T00:38:14.445Z,0.37
2023-02-23T00:41:44.266Z,0.33
2023-02-23T00:45:13.526Z,0.30
2023-02-23T00:48:42.332Z,0.26
2023-02-23T00:52:11.466Z,0.23
2023-02-23T00:55:42.198Z,0.20
2023-02-23T00:59:10.031Z,0.17
2023-02-23T01:02:37.169Z,0.17
2023-02-23T01:06:06.729Z,0.20
2023-02-23T01:09:35.238Z,0.24
2023-02-23T01:13:06.273Z,0.32
2023-02-23T01:16:39.281Z,0.40
2023-02-23T01:20:15.981Z,0.48
2023-02-23T01:23:43.188Z,0.49
2023-02-23T01:27:10.770Z,0.49
2023-02-23T01:30:38.027Z,0.48
2023-02-23T01:34:06.219Z,0.44
2023-02-23T01:37:35.655Z,0.40
2023-02-23T01:41:04.392Z,0.33
2023-02-23T01:45:15.033Z,0.27
2023-02-23T01:48:43.884Z,0.19
2023-02-23T01:52:14.776Z,0.16
2023-02-23T01:55:43.288Z,0.14
2023-02-23T01:59:13.078Z,0.10
2023-02-23T02:02:42.335Z,0.05
2023-02-23T02:06:14.798Z,0.01
2023-02-23T02:10:03.563Z,-0.03
2023-02-23T02:13:33.726Z,-0.10
2023-02-23T02:17:13.358Z,-0.14
2023-02-23T02:21:16.660Z,-0.17
2023-02-23T02:25:18.919Z,-0.22
2023-02-23T02:29:29.157Z,-0.24
2023-02-23T02:33:27.586Z,-0.30
2023-02-23T02:37:39.530Z,-0.34
2023-02-23T02:41:12.315Z,-0.36
2023-02-23T02:44:53.353Z,-0.40
2023-02-23T02:48:34.991Z,-0.38
2023-02-23T02:52:13.997Z,-0.39
2023-02-23T02:55:44.182Z,-0.41
2023-02-23T02:59:36.292Z,-0.40
2023-02-23T03:03:21.431Z,-0.40
2023-02-23T03:07:12.258Z,-0.37
2023-02-23T03:11:05.994Z,-0.32
2023-02-23T03:14:53.049Z,-0.26
2023-02-23T03:18:57.084Z,-0.25
2023-02-23T03:22:48.930Z,-0.18
2023-02-23T03:26:40.677Z,-0.13
2023-02-23T03:30:34.756Z,-0.09
2023-02-23T03:34:28.357Z,-0.05
2023-02-23T03:38:19.839Z,-0.09
2023-02-23T03:42:05.626Z,-0.13
2023-02-23T03:45:52.411Z,-0.17
2023-02-23T03:49:40.354Z,-0.23
2023-02-23T03:53:27.024Z,-0.27
2023-02-23T03:57:14.301Z,-0.32
2023-02-23T04:01:04.332Z,-0.37
2023-02-23T04:04:49.686Z,-0.42
2023-02-23T04:08:37.898Z,-0.44
2023-02-23T04:12:28.582Z,-0.45
2023-02-23T04:15:57.098Z,-0.49
2023-02-23T04:19:23.603Z,-0.52
2023-02-23T04:22:50.102Z,-0.54
2023-02-23T04:26:16.901Z,-0.59
2023-02-23T04:29:44.381Z,-0.60
2023-02-23T04:33:11.176Z,-0.64
2023-02-23T04:36:37.656Z,-0.67
2023-02-23T04:40:04.438Z,-0.70
2023-02-23T04:43:31.134Z,-0.72
2023-02-23T04:46:57.403Z,-0.75
2023-02-23T04:50:24.293Z,-0.77
2023-02-23T04:53:50.983Z,-0.77
2023-02-23T04:57:17.648Z,-0.78
2023-02-23T05:00:44.414Z,-0.80
2023-02-23T05:04:11.687Z,-0.83
2023-02-23T05:07:39.009Z,-0.82
2023-02-23T05:11:07.375Z,-0.82
2023-02-23T05:14:34.209Z,-0.79
2023-02-23T05:18:00.724Z,-0.76
2023-02-23T05:21:27.647Z,-0.74
2023-02-23T05:24:57.312Z,-0.70
2023-02-23T05:28:24.066Z,-0.66
2023-02-23T05:31:51.011Z,-0.63
2023-02-23T05:35:18.584Z,-0.62
2023-02-23T05:38:45.921Z,-0.60
2023-02-23T05:42:17.313Z,-0.54
2023-02-23T05:45:45.382Z,-0.53
2023-02-23T05:49:13.993Z,-0.56
2023-02-23T05:52:42.411Z,-0.59
2023-02-23T05:56:13.962Z,-0.60
2023-02-23T05:59:40.620Z,-0.63
2023-02-23T06:03:07.350Z,-0.65
2023-02-23T06:06:34.400Z,-0.68
2023-02-23T06:10:01.290Z,-0.70
2023-02-23T06:13:29.236Z,-0.73
2023-02-23T06:16:56.751Z,-0.78
2023-02-23T06:20:23.916Z,-0.79
2023-02-23T06:23:50.924Z,-0.80
2023-02-23T06:27:17.970Z,-0.80
2023-02-23T06:30:45.955Z,-0.81
2023-02-23T06:34:12.883Z,-0.78
2023-02-23T06:37:39.920Z,-0.75
2023-02-23T06:41:12.343Z,-0.73
2023-02-23T06:44:39.901Z,-0.73
2023-02-23T06:48:07.917Z,-0.71
2023-02-23T06:51:35.656Z,-0.70
2023-02-23T06:55:02.614Z,-0.64
2023-02-23T06:58:29.911Z,-0.58
2023-02-23T07:01:56.842Z,-0.52
2023-02-23T07:05:23.492Z,-0.45
2023-02-23T07:08:50.534Z,-0.37
2023-02-23T07:12:17.348Z,-0.31
2023-02-23T07:15:44.651Z,-0.25
2023-02-23T07:19:11.561Z,-0.20
2023-02-23T07:22:40.002Z,-0.15
2023-02-23T07:26:07.387Z,-0.09
2023-02-23T07:29:34.233Z,-0.06
2023-02-23T07:33:03.125Z,-0.03
2023-02-23T07:36:29.788Z,0.01
2023-02-23T07:39:56.602Z,0.06
2023-02-23T07:43:24.459Z,0.07
2023-02-23T07:46:53.246Z,0.07
2023-02-23T07:50:21.005Z,0.10
2023-02-23T07:53:48.086Z,0.11
2023-02-23T07:57:14.972Z,0.15
2023-02-23T08:00:41.797Z,0.20
2023-02-23T08:04:09.183Z,0.25
2023-02-23T08:07:36.654Z,0.31
2023-02-23T08:11:05.314Z,0.36
2023-02-23T08:14:32.218Z,0.41
2023-02-23T08:17:59.312Z,0.46
2023-02-23T08:21:25.749Z,0.49
2023-02-23T08:24:52.093Z,0.58
2023-02-23T08:28:20.579Z,0.65
2023-02-23T08:31:48.430Z,0.72
2023-02-23T08:35:16.084Z,0.78
2023-02-23T08:38:42.509Z,0.83
2023-02-23T08:42:10.533Z,0.87
2023-02-23T08:45:38.930Z,0.92
2023-02-23T08:49:09.036Z,0.98
2023-02-23T08:52:36.558Z,1.08
2023-02-23T08:56:18.102Z,1.21
2023-02-23T08:59:49.307Z,1.36
2023-02-23T09:03:20.408Z,1.48
2023-02-23T09:06:50.953Z,1.61
2023-02-23T09:10:25.913Z,1.73
2023-02-23T09:14:01.019Z,1.84
2023-02-23T09:17:30.349Z,1.92
2023-02-23T09:21:00.403Z,1.98
2023-02-23T09:24:28.688Z,2.05
2023-02-23T09:27:59.804Z,2.14
2023-02-23T09:31:27.374Z,2.19
2023-02-23T09:34:54.260Z,2.27
2023-02-23T09:38:20.767Z,2.35
2023-02-23T09:42:18.129Z,2.42
2023-02-23T09:45:49.228Z,2.54
2023-02-23T09:49:20.181Z,2.63
2023-02-23T09:52:50.656Z,2.71
2023-02-23T09:56:22.128Z,2.80
2023-02-23T09:59:48.810Z,2.89
2023-02-23T10:03:26.047Z,2.99
2023-02-23T10:07:00.632Z,3.14
2023-02-23T10:10:37.799Z,3.25
2023-02-23T10:14:21.664Z,3.31
2023-02-23T10:17:53.284Z,3.39
2023-02-23T10:21:26.586Z,3.46
2023-02-23T10:24:57.783Z,3.55
2023-02-23T10:28:25.368Z,3.68
2023-02-23T10:31:58.314Z,3.82
2023-02-23T10:35:26.354Z,3.92
2023-02-23T10:38:53.119Z,4.03
2023-02-23T10:42:24.479Z,4.13
2023-02-23T10:45:52.859Z,4.22
2023-02-23T10:49:23.249Z,4.32
2023-02-23T10:52:53.038Z,4.42
2023-02-23T10:56:21.843Z,4.57
2023-02-23T11:00:03.425Z,4.73
2023-02-23T11:03:37.400Z,4.91
2023-02-23T11:07:18.008Z,5.08
2023-02-23T11:10:56.297Z,5.23
2023-02-23T11:14:28.925Z,5.35
2023-02-23T11:18:00.898Z,5.48
2023-02-23T11:21:33.712Z,5.59
2023-02-23T11:25:01.850Z,5.69
2023-02-23T11:28:33.607Z,5.79
2023-02-23T11:32:09.865Z,5.91
2023-02-23T11:35:37.754Z,6.05
2023-02-23T11:39:23.722Z,6.19
2023-02-23T11:42:57.325Z,6.38
2023-02-23T11:46:25.667Z,6.51
2023-02-23T11:49:53.440Z,6.64
2023-02-23T11:53:30.030Z,6.74
2023-02-23T11:56:58.279Z,6.82
2023-02-23T12:00:30.425Z,6.89
2023-02-23T12:03:59.157Z,6.99
2023-02-23T12:07:39.140Z,7.07
2023-02-23T12:11:12.444Z,7.14
2023-02-23T12:14:49.991Z,7.23
2023-02-23T12:18:27.223Z,7.39
2023-02-23T12:22:03.701Z,7.52
2023-02-23T12:25:36.489Z,7.65
2023-02-23T12:29:07.538Z,7.75
2023-02-23T12:32:45.341Z,7.83
2023-02-23T12:36:26.709Z,7.98
2023-02-23T12:39:58.841Z,8.06
2023-02-23T12:43:31.882Z,8.09
2023-02-23T12:47:04.403Z,8.19
2023-02-23T12:50:34.753Z,8.26
2023-02-23T12:54:03.154Z,8.33
2023-02-23T12:57:39.103Z,8.37
2023-02-23T13:01:13.164Z,8.39
2023-02-23T13:05:06.054Z,8.37
2023-02-23T13:08:50.906Z,8.34
2023-02-23T13:12:33.414Z,8.32
2023-02-23T13:16:05.762Z,8.27
2023-02-23T13:19:39.627Z,8.19
2023-02-23T13:23:16.466Z,8.08
2023-02-23T13:26:50.465Z,8.00
2023-02-23T13:30:18.153Z,7.90
2023-02-23T13:33:44.824Z,7.81
2023-02-23T13:37:13.876Z,7.71
2023-02-23T13:40:46.817Z,7.62
2023-02-23T13:44:23.495Z,7.57
2023-02-23T13:47:55.762Z,7.49
2023-02-23T13:51:31.394Z,7.41
2023-02-23T13:55:04.773Z,7.35
2023-02-23T13:58:34.271Z,7.29
2023-02-23T14:02:17.898Z,7.23
2023-02-23T14:05:48.308Z,7.17
2023-02-23T14:09:24.030Z,7.12
2023-02-23T14:13:08.652Z,7.04
2023-02-23T14:16:36.448Z,7.00
2023-02-23T14:34:23.275Z,7.61
2023-02-23T14:38:01.171Z,7.49
2023-02-23T14:41:31.540Z,7.31
2023-02-23T14:45:04.189Z,7.18
2023-02-23T14:48:31.561Z,7.07
2023-02-23T14:52:06.096Z,6.96
2023-02-23T14:55:35.542Z,6.86
2023-02-23T14:59:02.466Z,6.80
2023-02-23T15:02:33.033Z,6.75
2023-02-23T15:06:02.697Z,6.69
2023-02-23T15:09:36.625Z,6.63
2023-02-23T15:13:11.119Z,6.57
2023-02-23T15:16:38.943Z,6.50
2023-02-23T15:20:16.237Z,6.44
2023-02-23T15:23:46.056Z,6.38
2023-02-23T15:27:23.053Z,6.33
2023-02-23T15:30:53.433Z,6.27
2023-02-23T15:34:22.250Z,6.22
2023-02-23T15:37:59.495Z,6.20
2023-02-23T15:41:42.641Z,6.19
2023-02-23T15:45:21.220Z,6.18
2023-02-23T15:48:53.872Z,6.20
2023-02-23T15:52:26.121Z,6.20
2023-02-23T15:55:56.295Z,6.19
2023-02-23T15:59:29.255Z,6.16
2023-02-23T16:03:00.085Z,6.12
2023-02-23T16:06:36.956Z,6.09
2023-02-23T16:10:21.959Z,6.08
2023-02-23T16:13:53.251Z,6.06
2023-02-23T16:17:30.369Z,6.04
2023-02-23T16:21:02.271Z,6.01
2023-02-23T16:24:31.714Z,6.00
2023-02-23T16:28:02.188Z,5.95
2023-02-23T16:31:44.321Z,5.92
2023-02-23T16:35:25.940Z,5.90
2023-02-23T16:39:01.552Z,5.86
2023-02-23T16:42:32.839Z,5.80
2023-02-23T16:45:59.602Z,5.74
2023-02-23T16:49:26.075Z,5.72
2023-02-23T16:52:56.696Z,5.67
2023-02-23T16:56:25.880Z,5.66
2023-02-23T16:59:54.838Z,5.65
2023-02-23T17:03:25.946Z,5.66
2023-02-23T17:06:58.016Z,5.67
2023-02-23T17:10:27.249Z,5.67
2023-02-23T17:13:54.849Z,5.70
2023-02-23T17:17:23.059Z,5.74
2023-02-23T17:20:50.003Z,5.79
2023-02-23T17:24:18.296Z,5.82
2023-02-23T17:27:44.999Z,5.82
2023-02-23T17:31:14.597Z,5.81
2023-02-23T17:34:41.542Z,5.81
2023-02-23T17:38:09.540Z,5.79
2023-02-23T17:41:35.925Z,5.78
2023-02-23T17:45:04.264Z,5.76
2023-02-23T17:48:34.765Z,5.73
2023-02-23T17:52:03.316Z,5.72
2023-02-23T17:55:30.477Z,5.67
2023-02-23T17:58:58.583Z,5.64
2023-02-23T18:02:27.183Z,5.61
2023-02-23T18:05:55.050Z,5.58
2023-02-23T18:09:21.686Z,5.56
2023-02-23T18:12:48.338Z,5.56
2023-02-23T18:16:23.040Z,5.57
2023-02-23T18:19:53.479Z,5.58
2023-02-23T18:23:23.519Z,5.61
2023-02-23T18:27:02.325Z,5.65
2023-02-23T18:30:31.786Z,5.70
2023-02-23T18:34:01.770Z,5.75
2023-02-23T18:37:33.839Z,5.82
2023-02-23T18:41:07.641Z,5.90
2023-02-23T18:44:41.654Z,5.95
2023-02-23T18:48:13.850Z,5.99
2023-02-23T18:51:45.556Z,6.01
2023-02-23T18:55:18.095Z,6.01
2023-02-23T18:58:49.217Z,5.98
2023-02-23T19:02:19.396Z,5.94
2023-02-23T19:05:54.421Z,5.92
2023-02-23T19:09:27.467Z,5.89
2023-02-23T19:12:58.787Z,5.85
2023-02-23T19:16:30.274Z,5.82
2023-02-23T19:20:00.927Z,5.79
2023-02-23T19:23:28.334Z,5.77
2023-02-23T19:26:56.768Z,5.72
2023-02-23T19:30:24.176Z,5.70
2023-02-23T19:33:51.915Z,5.70
2023-02-23T19:37:19.018Z,5.70
2023-02-23T19:40:47.067Z,5.72
2023-02-23T19:44:13.759Z,5.75
2023-02-23T19:47:41.175Z,5.78
2023-02-23T19:51:11.553Z,5.83
2023-02-23T19:54:39.350Z,5.90
2023-02-23T19:58:07.763Z,5.94
2023-02-23T20:01:35.289Z,5.97
2023-02-23T20:05:03.783Z,6.02
2023-02-23T20:08:30.697Z,6.03
2023-02-23T20:11:58.338Z,6.02
2023-02-23T20:15:25.518Z,6.02
2023-02-23T20:18:54.937Z,6.01
2023-02-23T20:22:22.222Z,5.96
2023-02-23T20:25:49.116Z,5.91
2023-02-23T20:29:19.379Z,5.89
2023-02-23T20:32:48.154Z,5.85
2023-02-23T20:36:16.113Z,5.80
2023-02-23T20:39:44.590Z,5.77
2023-02-23T20:43:12.436Z,5.75
2023-02-23T20:46:44.163Z,5.75
2023-02-23T20:50:13.991Z,5.75
2023-02-23T20:53:42.094Z,5.77
2023-02-23T20:57:09.874Z,5.81
2023-02-23T21:00:40.171Z,5.85
2023-02-23T21:04:07.847Z,5.90
2023-02-23T21:07:36.098Z,5.94
2023-02-23T21:11:08.117Z,5.99
2023-02-23T21:14:36.342Z,6.01
2023-02-23T21:18:03.849Z,6.04
2023-02-23T21:21:31.524Z,6.06
2023-02-23T21:25:02.349Z,6.07
2023-02-23T21:28:31.267Z,6.08
2023-02-23T21:31:58.712Z,6.09
2023-02-23T21:35:26.116Z,6.09
2023-02-23T21:38:54.603Z,6.08
2023-02-23T21:42:25.210Z,6.02
2023-02-23T21:45:51.980Z,5.98
2023-02-23T21:49:20.322Z,5.94
2023-02-23T21:52:49.123Z,5.92
2023-02-23T21:56:18.782Z,5.89
2023-02-23T21:59:46.976Z,5.88
2023-02-23T22:03:16.443Z,5.88
2023-02-23T22:06:46.092Z,5.91
2023-02-23T22:10:13.581Z,5.94
2023-02-23T22:13:43.713Z,5.96
2023-02-23T22:17:11.602Z,5.99
2023-02-23T22:20:39.589Z,6.03
2023-02-23T22:24:08.562Z,6.08
2023-02-23T22:27:36.077Z,6.14
2023-02-23T22:31:08.534Z,6.19
2023-02-23T22:34:35.521Z,6.20
2023-02-23T22:38:13.056Z,6.24
2023-02-23T22:41:42.603Z,6.27
2023-02-23T22:45:12.686Z,6.33
2023-02-23T22:48:44.074Z,6.34
2023-02-23T22:52:13.135Z,6.33
2023-02-23T22:55:42.708Z,6.31
2023-02-23T22:59:19.583Z,6.27
2023-02-23T23:02:47.469Z,6.23
2023-02-23T23:06:18.011Z,6.18
2023-02-23T23:09:45.223Z,6.16
2023-02-23T23:13:12.592Z,6.12
2023-02-23T23:16:48.395Z,6.08
2023-02-23T23:20:23.416Z,6.07
2023-02-23T23:23:51.851Z,6.09
2023-02-23T23:27:20.398Z,6.11
2023-02-23T23:30:52.498Z,6.13
2023-02-23T23:34:21.930Z,6.19
2023-02-23T23:37:49.849Z,6.27
2023-02-23T23:41:17.398Z,6.33
2023-02-23T23:44:45.763Z,6.38
2023-02-23T23:48:14.357Z,6.42
2023-02-23T23:51:45.044Z,6.45
2023-02-23T23:55:15.109Z,6.48
2023-02-23T23:58:42.606Z,6.52
